createdAt,value
2019-02-06T00:01:40.595Z,46.67
2019-02-06T00:04:09.224Z,48.93
2019-02-06T00:06:37.856Z,50.53
2019-02-06T00:09:10.858Z,44.40
2019-02-06T00:11:39.596Z,46.33
2019-02-06T00:14:08.268Z,47.47
2019-02-06T00:16:37.056Z,45.17
2019-02-06T00:19:05.770Z,42.30
2019-02-06T00:21:34.399Z,45.77
2019-02-06T00:24:03.106Z,51.50
2019-02-06T00:26:31.785Z,51.60
2019-02-06T00:29:00.464Z,65.17
2019-02-06T00:31:29.612Z,67.00
2019-02-06T00:33:58.291Z,62.73
2019-02-06T00:36:26.926Z,73.93
2019-02-06T00:38:55.609Z,63.23
2019-02-06T00:41:24.239Z,57.97
2019-02-06T00:43:52.903Z,60.87
2019-02-06T00:46:21.592Z,55.87
2019-02-06T00:48:50.264Z,54.60
2019-02-06T00:51:22.056Z,53.80
2019-02-06T00:53:50.602Z,55.23
2019-02-06T00:56:19.217Z,59.27
2019-02-06T00:58:47.788Z,51.80
2019-02-06T01:01:16.533Z,53.77
2019-02-06T01:03:45.165Z,57.10
2019-02-06T01:06:13.839Z,57.33
2019-02-06T01:08:42.839Z,57.40
2019-02-06T01:11:11.442Z,58.80
2019-02-06T01:13:40.062Z,60.00
2019-02-06T01:16:08.832Z,61.93
2019-02-06T01:18:37.323Z,64.50
2019-02-06T01:21:05.998Z,61.80
2019-02-06T01:23:34.624Z,65.83
2019-02-06T01:26:03.554Z,55.77
2019-02-06T01:28:32.167Z,62.17
2019-02-06T01:31:03.910Z,60.43
2019-02-06T01:33:32.469Z,63.23
2019-02-06T01:36:01.106Z,68.27
2019-02-06T01:38:29.686Z,68.60
2019-02-06T01:40:58.226Z,61.50
2019-02-06T01:43:26.907Z,65.53
2019-02-06T01:45:55.540Z,61.57
2019-02-06T01:48:24.219Z,67.83
2019-02-06T01:50:52.850Z,81.13
2019-02-06T01:53:21.598Z,89.93
2019-02-06T01:55:50.279Z,94.27
2019-02-06T01:58:19.354Z,90.80
2019-02-06T02:00:47.978Z,82.00
2019-02-06T02:03:16.610Z,110.43
2019-02-06T02:05:45.278Z,121.63
2019-02-06T02:08:13.920Z,105.77
2019-02-06T02:10:42.768Z,106.80
2019-02-06T02:13:11.378Z,102.57
2019-02-06T02:15:40.156Z,97.03
2019-02-06T02:18:08.837Z,95.53
2019-02-06T02:20:37.465Z,98.70
2019-02-06T02:23:06.088Z,97.73
2019-02-06T02:25:34.699Z,99.53
2019-02-06T02:28:03.408Z,92.93
2019-02-06T02:30:43.014Z,90.40
2019-02-06T02:33:11.573Z,95.90
2019-02-06T02:35:40.250Z,99.40
2019-02-06T02:38:08.855Z,82.43
2019-02-06T02:40:37.481Z,86.10
2019-02-06T02:43:06.145Z,78.47
2019-02-06T02:45:34.796Z,79.70
2019-02-06T02:48:03.418Z,82.23
2019-02-06T02:50:32.051Z,77.23
2019-02-06T02:53:00.711Z,90.20
2019-02-06T02:55:29.333Z,80.50
2019-02-06T02:57:57.998Z,85.97
2019-02-06T03:00:28.445Z,88.93
2019-02-06T03:03:01.746Z,79.73
2019-02-06T03:05:31.950Z,85.20
2019-02-06T03:08:00.647Z,79.67
2019-02-06T03:10:29.292Z,90.37
2019-02-06T03:12:57.927Z,93.70
2019-02-06T03:15:26.608Z,90.07
2019-02-06T03:17:55.230Z,97.20
2019-02-06T03:20:23.913Z,106.80
2019-02-06T03:22:52.558Z,103.90
2019-02-06T03:25:21.227Z,106.57
2019-02-06T03:27:49.851Z,106.33
2019-02-06T03:30:19.863Z,118.57
2019-02-06T03:32:48.702Z,131.97
2019-02-06T03:35:19.077Z,139.07
2019-02-06T03:37:47.705Z,136.83
2019-02-06T03:40:18.362Z,139.10
2019-02-06T03:42:47.294Z,136.87
2019-02-06T03:45:16.285Z,156.63
2019-02-06T03:47:44.958Z,136.47
2019-02-06T03:50:16.461Z,120.63
2019-02-06T03:52:45.098Z,119.63
2019-02-06T03:55:14.261Z,126.27
2019-02-06T03:57:42.925Z,119.00
2019-02-06T04:00:16.540Z,114.23
2019-02-06T04:02:45.175Z,115.50
2019-02-06T04:05:14.109Z,117.60
2019-02-06T04:07:42.806Z,122.03
2019-02-06T04:10:16.471Z,113.87
2019-02-06T04:12:45.034Z,131.93
2019-02-06T04:15:14.646Z,138.23
2019-02-06T04:17:43.502Z,118.40
2019-02-06T04:20:14.457Z,119.07
2019-02-06T04:22:43.091Z,114.90
2019-02-06T04:25:13.809Z,114.20
2019-02-06T04:27:42.485Z,118.30
2019-02-06T04:30:17.023Z,153.67
2019-02-06T04:32:45.763Z,170.03
2019-02-06T04:35:15.640Z,128.77
2019-02-06T04:37:44.670Z,132.47
2019-02-06T04:40:21.182Z,142.57
2019-02-06T04:42:50.124Z,115.67
2019-02-06T04:45:19.835Z,123.93
2019-02-06T04:47:48.516Z,124.60
2019-02-06T04:50:18.177Z,114.07
2019-02-06T04:52:46.951Z,106.73
2019-02-06T04:55:18.778Z,94.30
2019-02-06T04:57:47.828Z,85.37
2019-02-06T05:00:25.131Z,86.33
2019-02-06T05:02:53.804Z,87.53
2019-02-06T05:05:25.267Z,87.60
2019-02-06T05:07:53.906Z,81.20
2019-02-06T05:10:22.562Z,79.37
2019-02-06T05:12:51.189Z,81.27
2019-02-06T05:15:19.974Z,82.33
2019-02-06T05:17:48.619Z,81.60
2019-02-06T05:20:25.847Z,81.23
2019-02-06T05:22:57.238Z,95.10
2019-02-06T05:25:26.199Z,118.23
2019-02-06T05:27:54.852Z,113.47
2019-02-06T05:30:23.540Z,113.10
2019-02-06T05:32:52.188Z,128.27
2019-02-06T05:35:20.862Z,144.83
2019-02-06T05:37:49.505Z,114.97
2019-02-06T05:40:18.256Z,97.70
2019-02-06T05:42:47.171Z,79.67
2019-02-06T05:45:16.415Z,94.73
2019-02-06T05:47:44.990Z,85.23
2019-02-06T05:50:18.562Z,84.20
2019-02-06T05:52:48.108Z,91.13
2019-02-06T05:55:18.390Z,80.93
2019-02-06T05:57:47.965Z,84.83
2019-02-06T06:00:26.169Z,96.53
2019-02-06T06:02:57.500Z,100.60
2019-02-06T06:05:26.269Z,102.43
2019-02-06T06:07:55.262Z,101.67
2019-02-06T06:10:24.481Z,87.83
2019-02-06T06:12:55.846Z,76.47
2019-02-06T06:15:24.613Z,89.13
2019-02-06T06:17:53.404Z,89.87
2019-02-06T06:20:22.283Z,99.10
2019-02-06T06:22:53.553Z,89.83
2019-02-06T06:25:22.505Z,65.73
2019-02-06T06:27:51.194Z,95.50
2019-02-06T06:30:21.411Z,84.70
2019-02-06T06:32:50.108Z,77.57
2019-02-06T06:35:18.979Z,85.47
2019-02-06T06:37:58.831Z,72.30
2019-02-06T06:40:27.742Z,76.10
2019-02-06T06:42:56.589Z,74.97
2019-02-06T06:45:25.876Z,72.87
2019-02-06T06:47:54.652Z,73.57
2019-02-06T06:50:25.152Z,73.70
2019-02-06T06:52:58.041Z,75.43
2019-02-06T06:55:26.965Z,90.67
2019-02-06T06:57:55.609Z,93.80
2019-02-06T07:00:26.436Z,85.60
2019-02-06T07:02:55.029Z,86.23
2019-02-06T07:05:23.801Z,73.60
2019-02-06T07:07:54.042Z,73.13
2019-02-06T07:10:23.017Z,162.43
2019-02-06T07:12:51.745Z,113.53
2019-02-06T07:15:22.722Z,78.17
2019-02-06T07:17:51.513Z,68.97
2019-02-06T07:20:20.658Z,78.57
2019-02-06T07:22:49.493Z,84.80
2019-02-06T07:25:20.103Z,78.97
2019-02-06T07:27:51.792Z,73.00
2019-02-06T07:30:26.613Z,68.80
2019-02-06T07:32:58.727Z,89.30
2019-02-06T07:35:27.414Z,98.60
2019-02-06T07:37:56.725Z,99.83
2019-02-06T07:40:26.375Z,103.67
2019-02-06T07:42:55.066Z,82.33
2019-02-06T07:45:24.031Z,90.20
2019-02-06T07:47:52.906Z,121.87
2019-02-06T07:50:37.482Z,115.50
2019-02-06T07:53:06.124Z,76.87
2019-02-06T07:55:34.965Z,73.53
2019-02-06T07:58:03.703Z,70.13
2019-02-06T08:00:32.475Z,83.03
2019-02-06T08:03:01.259Z,99.80
2019-02-06T08:05:30.087Z,81.33
2019-02-06T08:07:59.471Z,76.87
2019-02-06T08:10:30.305Z,75.00
2019-02-06T08:12:58.930Z,73.57
2019-02-06T08:15:27.685Z,75.17
2019-02-06T08:17:56.695Z,62.07
2019-02-06T08:20:25.816Z,71.40
2019-02-06T08:23:00.848Z,77.93
2019-02-06T08:25:29.670Z,91.73
2019-02-06T08:27:58.483Z,76.63
2019-02-06T08:30:33.113Z,75.70
2019-02-06T08:33:04.721Z,86.23
2019-02-06T08:35:33.844Z,88.23
2019-02-06T08:38:02.511Z,103.53
2019-02-06T08:40:32.346Z,97.57
2019-02-06T08:43:00.957Z,105.53
2019-02-06T08:45:29.737Z,72.40
2019-02-06T08:47:58.675Z,64.40
2019-02-06T08:50:27.984Z,68.63
2019-02-06T08:52:56.880Z,57.47
2019-02-06T08:55:32.898Z,61.73
2019-02-06T08:58:02.104Z,56.27
2019-02-06T09:00:33.399Z,59.77
2019-02-06T09:03:09.143Z,80.27
2019-02-06T09:05:37.865Z,85.47
2019-02-06T09:08:06.815Z,96.83
2019-02-06T09:10:35.694Z,75.50
2019-02-06T09:13:05.231Z,79.03
2019-02-06T09:15:33.877Z,74.93
2019-02-06T09:18:02.662Z,70.47
2019-02-06T09:20:31.514Z,62.50
2019-02-06T09:23:00.372Z,68.70
2019-02-06T09:25:31.940Z,72.67
2019-02-06T09:28:00.932Z,70.23
2019-02-06T09:30:36.204Z,98.03
2019-02-06T09:33:08.442Z,145.97
2019-02-06T09:35:37.209Z,83.37
2019-02-06T09:38:05.966Z,83.03
2019-02-06T09:40:36.476Z,79.40
2019-02-06T09:43:11.385Z,90.67
2019-02-06T09:45:40.184Z,100.50
2019-02-06T09:48:10.425Z,138.97
2019-02-06T09:50:40.677Z,113.40
2019-02-06T09:53:09.448Z,115.60
2019-02-06T09:55:38.124Z,124.40
2019-02-06T09:58:06.965Z,106.77
2019-02-06T10:00:37.324Z,100.67
2019-02-06T10:03:06.871Z,101.00
2019-02-06T10:05:38.370Z,94.33
2019-02-06T10:08:07.109Z,105.33
2019-02-06T10:10:35.735Z,95.87
2019-02-06T10:13:04.520Z,103.53
2019-02-06T10:15:37.586Z,101.23
2019-02-06T10:18:06.721Z,100.93
2019-02-06T10:20:40.814Z,102.53
2019-02-06T10:23:09.542Z,97.57
2019-02-06T10:25:38.858Z,87.77
2019-02-06T10:28:07.745Z,99.37
2019-02-06T10:30:42.109Z,102.10
2019-02-06T10:33:10.812Z,106.67
2019-02-06T10:35:39.555Z,101.40
2019-02-06T10:38:08.557Z,111.10
2019-02-06T10:40:40.027Z,120.83
2019-02-06T10:43:11.819Z,89.87
2019-02-06T10:45:40.717Z,79.90
2019-02-06T10:48:09.414Z,77.30
2019-02-06T10:50:44.079Z,82.73
2019-02-06T10:53:12.811Z,74.13
2019-02-06T10:55:42.638Z,71.37
2019-02-06T10:58:11.992Z,67.10
2019-02-06T11:00:52.378Z,74.93
2019-02-06T11:03:21.471Z,62.33
2019-02-06T11:06:02.634Z,64.80
2019-02-06T11:08:31.299Z,63.23
2019-02-06T11:11:04.549Z,71.90
2019-02-06T11:13:33.514Z,66.80
2019-02-06T11:16:03.482Z,60.23
2019-02-06T11:18:32.337Z,48.17
2019-02-06T11:21:04.073Z,53.37
2019-02-06T11:23:35.656Z,47.07
2019-02-06T11:26:05.531Z,50.23
2019-02-06T11:28:34.351Z,60.77
2019-02-06T11:31:05.854Z,64.43
2019-02-06T11:33:34.649Z,54.37
2019-02-06T11:36:04.879Z,48.83
2019-02-06T11:38:34.307Z,64.50
2019-02-06T11:41:03.219Z,66.60
2019-02-06T11:43:33.737Z,60.53
2019-02-06T11:46:02.532Z,49.33
2019-02-06T11:48:32.433Z,68.57
2019-02-06T11:51:01.183Z,66.63
2019-02-06T11:53:33.684Z,77.13
2019-02-06T11:56:02.792Z,83.50
2019-02-06T11:58:31.571Z,94.67
2019-02-06T12:01:02.052Z,102.97
2019-02-06T12:03:34.092Z,107.73
2019-02-06T12:06:10.719Z,110.40
2019-02-06T12:08:40.782Z,107.47
2019-02-06T12:11:12.872Z,118.80
2019-02-06T12:13:41.558Z,101.07
2019-02-06T12:16:10.513Z,150.00
2019-02-06T12:18:39.266Z,57.30
2019-02-06T12:21:13.217Z,129.23
2019-02-06T12:23:47.837Z,119.03
2019-02-06T12:26:17.274Z,130.60
2019-02-06T12:28:46.770Z,116.80
2019-02-06T12:31:15.806Z,114.93
2019-02-06T12:33:45.522Z,100.17
2019-02-06T12:36:15.819Z,112.63
2019-02-06T12:38:53.452Z,104.03
2019-02-06T12:41:19.857Z,91.97
2019-02-06T12:43:48.757Z,72.90
2019-02-06T12:46:17.562Z,55.80
2019-02-06T12:48:46.729Z,63.67
2019-02-06T12:51:18.606Z,57.70
2019-02-06T12:53:47.523Z,49.53
2019-02-06T12:56:16.323Z,44.63
2019-02-06T12:58:46.514Z,49.43
2019-02-06T13:01:16.399Z,55.63
2019-02-06T13:03:45.004Z,67.23
2019-02-06T13:06:19.880Z,76.20
2019-02-06T13:08:51.264Z,74.03
2019-02-06T13:11:19.861Z,53.03
2019-02-06T13:13:48.503Z,43.47
2019-02-06T13:16:17.289Z,37.10
2019-02-06T13:18:50.295Z,31.87
2019-02-06T13:21:20.790Z,47.80
2019-02-06T13:23:49.697Z,34.93
2019-02-06T13:26:19.039Z,34.17
2019-02-06T13:28:50.503Z,34.03
2019-02-06T13:31:22.151Z,27.33
2019-02-06T13:33:56.825Z,16.67
2019-02-06T13:36:25.469Z,23.10
2019-02-06T13:38:57.386Z,25.67
2019-02-06T13:41:30.353Z,14.80
2019-02-06T13:43:59.020Z,13.87
2019-02-06T13:46:27.829Z,13.90
2019-02-06T13:48:58.702Z,16.93
2019-02-06T13:51:29.050Z,18.27
2019-02-06T13:54:00.504Z,13.83
2019-02-06T13:56:32.064Z,14.27
2019-02-06T13:59:07.384Z,16.23
2019-02-06T14:01:36.303Z,11.73
2019-02-06T14:04:05.307Z,12.40
2019-02-06T14:06:36.707Z,8.43
2019-02-06T14:09:08.424Z,11.73
2019-02-06T14:11:37.039Z,9.83
2019-02-06T14:14:05.672Z,13.20
2019-02-06T14:16:43.189Z,19.80
2019-02-06T14:19:11.819Z,19.10
2019-02-06T14:21:43.441Z,10.40
2019-02-06T14:24:18.015Z,13.57
2019-02-06T14:26:52.296Z,11.67
2019-02-06T14:29:23.894Z,12.17
2019-02-06T14:32:15.747Z,11.53
2019-02-06T14:35:05.686Z,17.27
2019-02-06T14:37:40.290Z,21.13
2019-02-06T14:40:17.770Z,26.77
2019-02-06T14:43:09.164Z,27.33
2019-02-06T14:45:55.295Z,22.27
2019-02-06T14:48:43.261Z,51.37
2019-02-06T14:51:17.804Z,48.13
2019-02-06T14:54:01.592Z,49.27
2019-02-06T14:56:45.033Z,54.63
2019-02-06T14:59:22.507Z,61.13
2019-02-06T15:02:06.196Z,72.67
2019-02-06T15:05:00.341Z,58.60
2019-02-06T15:07:34.691Z,77.90
2019-02-06T15:10:31.854Z,70.07
2019-02-06T15:13:06.376Z,51.10
2019-02-06T15:15:59.354Z,35.03
2019-02-06T15:18:42.828Z,32.70
2019-02-06T15:21:32.596Z,36.93
2019-02-06T15:24:19.140Z,48.97
2019-02-06T15:26:53.468Z,48.20
2019-02-06T15:29:43.315Z,43.10
2019-02-06T15:32:28.382Z,48.30
2019-02-06T15:35:11.770Z,66.30
2019-02-06T15:38:20.932Z,30.93
2019-02-06T15:41:07.841Z,39.00
2019-02-06T15:43:58.020Z,55.27
2019-02-06T15:46:44.466Z,36.37
2019-02-06T15:49:40.289Z,27.60
2019-02-06T15:52:26.801Z,29.30
2019-02-06T15:55:33.168Z,54.87
2019-02-06T15:58:31.889Z,84.90
2019-02-06T16:01:24.472Z,78.90
2019-02-06T16:04:15.412Z,77.90
2019-02-06T16:06:53.797Z,70.90
2019-02-06T16:09:44.497Z,85.60
2019-02-06T16:12:24.495Z,91.00
2019-02-06T16:15:08.120Z,123.60
2019-02-06T16:17:46.614Z,200.20
2019-02-06T16:20:33.163Z,227.17
2019-02-06T16:23:30.679Z,257.40
2019-02-06T16:26:19.024Z,264.50
2019-02-06T16:29:24.197Z,214.33
2019-02-06T16:32:18.800Z,134.73
2019-02-06T16:35:23.822Z,136.07
2019-02-06T16:38:27.021Z,118.70
2019-02-06T16:41:13.587Z,114.10
2019-02-06T16:44:04.866Z,93.63
2019-02-06T16:46:51.877Z,79.27
2019-02-06T16:49:38.632Z,59.60
2019-02-06T16:52:16.268Z,73.53
2019-02-06T16:54:57.161Z,81.77
2019-02-06T16:58:03.589Z,64.17
2019-02-06T17:00:38.241Z,76.77
2019-02-06T17:03:10.500Z,54.40
2019-02-06T17:06:07.531Z,41.87
2019-02-06T17:08:39.118Z,49.70
2019-02-06T17:11:16.265Z,42.73
2019-02-06T17:14:04.405Z,50.03
2019-02-06T17:16:36.180Z,34.13
2019-02-06T17:19:22.860Z,25.03
2019-02-06T17:22:16.495Z,50.20
2019-02-06T17:24:51.086Z,49.93
2019-02-06T17:27:39.890Z,52.03
2019-02-06T17:30:31.192Z,42.30
2019-02-06T17:33:14.836Z,45.50
2019-02-06T17:35:46.514Z,70.23
2019-02-06T17:38:21.296Z,71.27
2019-02-06T17:41:15.888Z,91.03
2019-02-06T17:44:06.552Z,75.03
2019-02-06T17:46:40.763Z,58.23
2019-02-06T17:49:17.989Z,91.40
2019-02-06T17:51:58.560Z,84.20
2019-02-06T17:54:33.012Z,85.93
2019-02-06T17:57:04.380Z,83.50
2019-02-06T17:59:33.088Z,77.23
2019-02-06T18:02:07.910Z,73.43
2019-02-06T18:04:36.878Z,68.43
2019-02-06T18:07:12.646Z,75.80
2019-02-06T18:09:41.281Z,72.37
2019-02-06T18:12:10.072Z,70.30
2019-02-06T18:14:38.763Z,67.40
2019-02-06T18:17:08.152Z,74.03
2019-02-06T18:19:43.924Z,82.07
2019-02-06T18:22:22.460Z,76.13
2019-02-06T18:24:50.162Z,71.40
2019-02-06T18:27:18.786Z,75.07
2019-02-06T18:29:47.477Z,75.10
2019-02-06T18:32:16.592Z,65.90
2019-02-06T18:34:45.220Z,68.57
2019-02-06T18:37:13.883Z,63.90
2019-02-06T18:39:42.779Z,56.63
2019-02-06T18:42:11.633Z,52.67
2019-02-06T18:44:40.578Z,45.80
2019-02-06T18:47:09.213Z,50.77
2019-02-06T18:49:37.886Z,56.83
2019-02-06T18:52:06.937Z,75.77
2019-02-06T18:54:36.247Z,73.17
2019-02-06T18:57:07.597Z,70.37
2019-02-06T18:59:36.237Z,61.17
2019-02-06T19:02:09.022Z,50.93
2019-02-06T19:04:37.655Z,54.33
2019-02-06T19:07:12.912Z,59.63
2019-02-06T19:09:44.892Z,61.97
2019-02-06T19:12:13.585Z,61.67
2019-02-06T19:14:45.070Z,72.33
2019-02-06T19:17:15.184Z,118.13
2019-02-06T19:19:46.493Z,112.57
2019-02-06T19:22:16.979Z,51.17
2019-02-06T19:24:45.923Z,44.50
2019-02-06T19:27:20.132Z,52.50
2019-02-06T19:29:53.334Z,54.53
2019-02-06T19:32:21.874Z,54.77
2019-02-06T19:34:56.134Z,52.03
2019-02-06T19:37:24.809Z,55.53
2019-02-06T19:39:56.431Z,52.30
2019-02-06T19:42:25.232Z,55.87
2019-02-06T19:44:56.479Z,55.30
2019-02-06T19:47:28.597Z,58.27
2019-02-06T19:49:55.925Z,62.80
2019-02-06T19:52:24.560Z,65.67
2019-02-06T19:54:53.640Z,79.33
2019-02-06T19:57:22.390Z,95.00
2019-02-06T19:59:51.021Z,122.07
2019-02-06T20:02:19.695Z,112.63
2019-02-06T20:04:50.082Z,116.07
2019-02-06T20:07:18.720Z,104.27
2019-02-06T20:09:47.420Z,100.10
2019-02-06T20:12:16.028Z,92.03
2019-02-06T20:14:45.017Z,83.13
2019-02-06T20:17:14.276Z,99.53
2019-02-06T20:19:42.953Z,95.93
2019-02-06T20:22:11.602Z,103.43
2019-02-06T20:24:46.632Z,106.37
2019-02-06T20:27:15.355Z,113.07
2019-02-06T20:29:44.153Z,115.00
2019-02-06T20:32:15.776Z,107.57
2019-02-06T20:34:44.438Z,111.97
2019-02-06T20:37:13.022Z,109.13
2019-02-06T20:39:44.686Z,116.07
2019-02-06T20:42:13.382Z,95.07
2019-02-06T20:44:45.082Z,89.77
2019-02-06T20:47:13.887Z,91.43
2019-02-06T20:49:42.584Z,91.27
2019-02-06T20:52:11.134Z,85.77
2019-02-06T20:54:41.316Z,89.13
2019-02-06T20:57:15.661Z,82.60
2019-02-06T20:59:42.895Z,74.97
2019-02-06T21:02:17.674Z,67.13
2019-02-06T21:04:47.130Z,77.17
2019-02-06T21:07:15.869Z,82.47
2019-02-06T21:09:44.488Z,86.53
2019-02-06T21:12:13.168Z,82.60
2019-02-06T21:14:41.735Z,82.20
2019-02-06T21:17:10.544Z,79.20
2019-02-06T21:19:39.105Z,83.80
2019-02-06T21:22:10.724Z,82.73
2019-02-06T21:24:39.347Z,100.83
2019-02-06T21:27:08.400Z,100.20
2019-02-06T21:29:37.152Z,85.40
2019-02-06T21:32:05.935Z,84.40
2019-02-06T21:34:34.791Z,86.20
2019-02-06T21:37:06.157Z,70.20
2019-02-06T21:39:34.841Z,80.90
2019-02-06T21:42:03.466Z,89.67
2019-02-06T21:44:32.096Z,94.70
2019-02-06T21:47:05.436Z,65.07
2019-02-06T21:49:34.019Z,62.30
2019-02-06T21:52:07.568Z,58.03
2019-02-06T21:54:36.303Z,58.23
2019-02-06T21:57:04.978Z,66.27
2019-02-06T21:59:33.619Z,63.10
2019-02-06T22:02:02.286Z,65.13
2019-02-06T22:04:30.888Z,30.10
2019-02-06T22:06:59.441Z,23.47
2019-02-06T22:09:28.530Z,22.57
2019-02-06T22:11:57.102Z,23.73
2019-02-06T22:14:28.830Z,24.43
2019-02-06T22:17:00.484Z,26.53
2019-02-06T22:19:28.162Z,28.50
2019-02-06T22:21:56.768Z,30.40
2019-02-06T22:24:25.328Z,25.23
2019-02-06T22:26:53.990Z,22.03
2019-02-06T22:29:22.604Z,20.67
2019-02-06T22:31:54.089Z,20.43
2019-02-06T22:34:22.891Z,24.43
2019-02-06T22:36:51.406Z,21.37
2019-02-06T22:39:22.762Z,25.07
2019-02-06T22:41:51.423Z,22.20
2019-02-06T22:44:20.068Z,21.90
2019-02-06T22:46:48.724Z,17.40
2019-02-06T22:49:17.286Z,17.17
2019-02-06T22:51:48.874Z,19.70
2019-02-06T22:54:20.055Z,16.57
2019-02-06T22:56:48.596Z,17.97
2019-02-06T22:59:17.138Z,17.33
2019-02-06T23:01:46.649Z,22.77
2019-02-06T23:04:15.326Z,22.97
2019-02-06T23:06:43.964Z,26.23
2019-02-06T23:09:12.767Z,25.60
2019-02-06T23:11:41.442Z,29.50
2019-02-06T23:14:17.207Z,33.50
2019-02-06T23:16:40.527Z,32.07
2019-02-06T23:19:09.132Z,32.60
2019-02-06T23:21:37.751Z,33.63
2019-02-06T23:24:06.547Z,41.93
2019-02-06T23:26:35.181Z,42.37
2019-02-06T23:29:03.862Z,44.93
2019-02-06T23:31:32.572Z,46.03
2019-02-06T23:34:04.254Z,40.80
2019-02-06T23:36:32.874Z,35.43
2019-02-06T23:39:01.551Z,37.23
2019-02-06T23:41:30.202Z,36.50
2019-02-06T23:43:58.848Z,37.63
2019-02-06T23:46:27.490Z,39.07
2019-02-06T23:48:56.268Z,37.13
2019-02-06T23:51:24.872Z,38.57
2019-02-06T23:53:53.432Z,39.90
2019-02-06T23:56:22.116Z,39.70
2019-02-06T23:58:50.779Z,35.77
